Decoded Metar for EPWA (WARSAW in POLAND) (IATA:WAW) | Meteo·Mobile Aviation Weather
aviador You're here:

EPWA Decoded Metar

WARSAW in POLAND
Report Time2019-01-17 22:30:00
UTC Time2019-01-17 22:55:30
Flight Rules mvfr MVFR
Wind220° at 09 kt
W.Decomp.*RWY 15: 3.8 kt HW 8.2 kt RCW
RWY 29: 2.3 kt HW 8.7 kt LCW
W.Rank220° ranks 18
Current wind is above 220° avg. (6.3)
Visibility9999 m
Phenomena:Light Shower Rain
Clouds:Broken CB 025 Hf
Expected CloudBase > 1,200 ft AGL from Temp-Dew spread
Ceiling2,500 ft
Temp05°C (ISA -9)
Dew Point02°C (81% RH)
AAT0.1°C
QNH1000 hPa
Density Alt-230 ft
Elevation351 ft
Report Wrong Elevation
Raw Report
EPWA 172230Z 22009KT 190V250 9999 -SHRA BKN025CB 05/02 Q1000
NOSIG=

Extra information for EPWA:More info

Metar Taf Metar & Taf Last 4 Metars F.Rules Stats Wind Profile Meteogram Temp Stats Airport Information Weather charts Add Link Nearby VenuesMetar ALERT Operation Metar Decoded Social comments